Time;durP1;ratioP1;P1;durP2;ratioP2;P2;SDS_P1;SDS_P2;PMS_P1;PMS_P2;Temp;Humidity;BMP_temperature;BMP_pressure;BME280_temperature;BME280_humidity;BME280_pressure;Samples;Min_cycle;Max_cycle;Signal;HPM_P1;HPM_P2
2023/06/30 00:00:32;;;;;;;4.80;4.40;;;;;;;13.25;72.95;99444.27;218419;1268;140463;-67
2023/06/30 00:05:56;;;;;;;5.10;4.60;;;;;;;13.24;72.91;99444.95;218314;1264;140713;-68
2023/06/30 00:11:01;;;;;;;5.50;5.00;;;;;;;13.18;73.03;99444.33;218364;1263;139338;-69
2023/06/30 00:16:06;;;;;;;5.60;5.00;;;;;;;13.12;73.42;99441.22;217715;1264;139049;-70
2023/06/30 00:21:10;;;;;;;5.10;4.70;;;;;;;13.02;73.24;99439.48;217902;1261;139990;-70
2023/06/30 00:26:15;;;;;;;5.20;4.70;;;;;;;12.95;73.84;99438.80;217807;1260;139501;-70
2023/06/30 00:31:20;;;;;;;4.90;4.50;;;;;;;12.91;74.18;99437.10;218168;1260;139048;-67
2023/06/30 00:36:25;;;;;;;5.60;5.00;;;;;;;12.85;74.35;99435.03;218062;1258;139740;-70
2023/06/30 00:41:30;;;;;;;5.30;4.80;;;;;;;12.75;74.43;99428.02;219274;1257;139289;-69
2023/06/30 00:46:34;;;;;;;6.10;4.80;;;;;;;12.67;74.65;99425.07;217975;1261;139690;-70
2023/06/30 00:51:40;;;;;;;5.90;5.40;;;;;;;12.64;75.05;99418.77;217712;1258;139785;-67
2023/06/30 00:56:44;;;;;;;6.20;4.90;;;;;;;12.56;74.78;99415.23;218090;1260;139254;-68
2023/06/30 01:01:58;;;;;;;6.20;5.10;;;;;;;12.47;75.18;99405.71;217700;1258;139200;-67
2023/06/30 01:07:55;;;;;;;8.60;5.20;;;;;;;12.43;75.38;99402.15;218007;1257;139005;-66
2023/06/30 01:13:01;;;;;;;5.70;5.10;;;;;;;12.39;75.33;99400.88;217803;1257;139455;-67
2023/06/30 01:18:08;;;;;;;6.30;5.20;;;;;;;12.33;75.28;99399.38;218487;1259;139150;-68
2023/06/30 01:23:14;;;;;;;7.10;4.90;;;;;;;12.27;75.21;99391.52;217722;1258;140415;-68
2023/06/30 01:28:19;;;;;;;;;;;;;;;12.19;75.44;99393.98;218587;1258;140461;-67
2023/06/30 01:33:26;;;;;;;4.90;4.50;;;;;;;12.10;75.69;99391.69;218533;1257;127659;-67
2023/06/30 01:38:31;;;;;;;5.40;4.80;;;;;;;12.05;75.76;99384.64;217900;1260;139234;-65
2023/06/30 01:43:35;;;;;;;5.90;5.30;;;;;;;12.03;75.80;99386.80;217796;1257;139212;-68
2023/06/30 01:48:41;;;;;;;7.90;4.80;;;;;;;12.01;76.06;99383.46;220378;1256;140600;-65
2023/06/30 01:53:45;;;;;;;7.20;5.80;;;;;;;11.98;76.18;99385.20;220454;1257;139680;-64
2023/06/30 01:58:50;;;;;;;6.50;5.10;;;;;;;11.96;76.14;99389.52;220450;1257;140013;-66
2023/06/30 02:03:54;;;;;;;6.80;5.80;;;;;;;11.97;76.35;99387.49;217995;1257;139647;-66
2023/06/30 02:08:59;;;;;;;5.80;5.20;;;;;;;11.91;76.53;99383.54;219002;1256;139951;-65
2023/06/30 02:14:03;;;;;;;7.10;5.10;;;;;;;11.82;76.70;99381.05;217864;1258;139712;-67
2023/06/30 02:19:07;;;;;;;6.20;5.30;;;;;;;11.76;76.83;99381.45;218285;1257;140106;-64
2023/06/30 02:24:11;;;;;;;8.80;5.80;;;;;;;11.73;77.10;99379.17;218593;1257;141033;-66
2023/06/30 02:29:14;;;;;;;12.20;5.90;;;;;;;11.73;77.05;99374.24;217647;1260;139216;-67
2023/06/30 02:34:19;;;;;;;9.00;4.90;;;;;;;11.71;77.26;99377.31;217934;1256;143699;-65
2023/06/30 02:39:23;;;;;;;7.30;6.60;;;;;;;11.69;77.24;99373.34;218472;1257;140257;-66
2023/06/30 02:44:27;;;;;;;7.70;6.60;;;;;;;11.68;77.51;99366.23;218562;1259;139582;-66
2023/06/30 02:49:32;;;;;;;7.90;5.40;;;;;;;11.72;77.55;99371.29;217733;1259;140241;-67
2023/06/30 02:54:37;;;;;;;8.50;6.30;;;;;;;11.70;77.82;99368.17;217879;1257;140010;-65
2023/06/30 02:59:42;;;;;;;15.00;9.00;;;;;;;11.72;78.00;99366.16;217921;1257;140274;-66
2023/06/30 03:04:47;;;;;;;6.40;5.40;;;;;;;11.77;78.29;99365.02;218085;1257;139814;-65
2023/06/30 03:09:51;;;;;;;7.40;6.60;;;;;;;11.82;78.27;99364.28;218009;1257;139445;-64
2023/06/30 03:14:55;;;;;;;8.30;5.30;;;;;;;11.90;78.40;99358.17;218932;1256;140007;-64
2023/06/30 03:20:08;;;;;;;7.00;6.40;;;;;;;11.98;78.49;99357.05;218710;1257;139636;-66
2023/06/30 03:25:12;;;;;;;14.40;8.10;;;;;;;12.07;78.91;99362.64;217645;1257;139909;-66
2023/06/30 03:30:16;;;;;;;13.70;8.50;;;;;;;12.19;78.85;99364.32;218828;1256;139252;-65
2023/06/30 03:35:21;;;;;;;6.90;6.30;;;;;;;12.35;79.30;99362.73;218956;1256;141680;-65
2023/06/30 03:40:25;;;;;;;10.50;7.00;;;;;;;12.47;79.17;99361.61;217915;1260;140333;-65
2023/06/30 03:45:31;;;;;;;7.40;6.70;;;;;;;12.66;79.34;99361.19;218873;1257;139519;-65
2023/06/30 03:50:34;;;;;;;11.50;7.10;;;;;;;12.98;79.31;99362.30;220575;1256;140793;-64
2023/06/30 03:55:38;;;;;;;9.50;7.10;;;;;;;13.21;79.57;99365.27;220639;1256;140722;-64
2023/06/30 04:00:41;;;;;;;8.10;7.20;;;;;;;13.55;79.66;99359.70;218315;1259;139408;-64
2023/06/30 04:05:45;;;;;;;8.70;7.50;;;;;;;13.97;79.45;99361.17;219120;1257;140201;-63
2023/06/30 04:10:50;;;;;;;9.70;7.60;;;;;;;14.18;79.47;99354.39;217974;1257;139904;-64
2023/06/30 04:15:55;;;;;;;9.40;8.20;;;;;;;14.34;79.40;99355.05;217579;1257;139719;-64
2023/06/30 04:20:59;;;;;;;13.10;9.10;;;;;;;14.52;79.64;99353.08;217846;1257;141946;-63
2023/06/30 04:26:04;;;;;;;10.50;9.50;;;;;;;14.93;79.35;99347.15;217983;1259;139832;-63
2023/06/30 04:31:09;;;;;;;9.40;8.50;;;;;;;15.37;79.14;99348.66;218961;1257;139468;-63
2023/06/30 04:36:13;;;;;;;10.20;8.40;;;;;;;15.75;78.91;99341.67;218283;1256;139829;-64
2023/06/30 04:41:18;;;;;;;9.20;8.10;;;;;;;17.07;76.88;99335.63;218018;1257;139763;-64
2023/06/30 04:46:25;;;;;;;9.50;8.60;;;;;;;18.42;75.07;99337.64;218241;1257;139551;-64
2023/06/30 04:51:29;;;;;;;12.90;8.20;;;;;;;19.46;73.26;99338.33;217420;1257;139414;-65
2023/06/30 04:56:34;;;;;;;8.40;7.40;;;;;;;20.02;72.06;99335.29;218324;1257;139450;-64
2023/06/30 05:01:39;;;;;;;8.20;7.40;;;;;;;19.92;71.11;99333.63;218099;1257;140541;-66
2023/06/30 05:06:44;;;;;;;8.30;6.90;;;;;;;20.43;70.10;99333.70;217917;1257;139661;-66
2023/06/30 05:11:49;;;;;;;7.70;7.00;;;;;;;21.39;69.12;99334.13;218741;1256;139590;-64
2023/06/30 05:16:54;;;;;;;7.50;6.10;;;;;;;24.14;66.27;99338.05;218015;1257;139205;-65
2023/06/30 05:22:00;;;;;;;6.40;5.30;;;;;;;27.03;62.07;99339.23;217743;1257;139672;-63
2023/06/30 05:27:05;;;;;;;5.50;5.10;;;;;;;27.01;60.98;99341.32;218167;1259;138829;-63
2023/06/30 05:32:09;;;;;;;;;;;;;;;27.32;58.43;99340.58;217816;1257;138284;-64
2023/06/30 05:37:14;;;;;;;5.70;5.00;;;;;;;27.70;57.13;99338.01;218912;1256;125054;-63
2023/06/30 05:42:18;;;;;;;5.90;5.20;;;;;;;27.10;56.89;99338.58;218751;1256;139343;-63
2023/06/30 05:47:23;;;;;;;5.50;5.00;;;;;;;26.63;56.17;99341.29;220511;1256;138520;-65
2023/06/30 05:52:28;;;;;;;7.60;5.20;;;;;;;25.94;56.78;99343.64;220605;1256;138874;-66
2023/06/30 05:57:33;;;;;;;6.80;5.30;;;;;;;25.46;57.25;99346.09;220459;1255;138841;-67
2023/06/30 06:02:37;;;;;;;7.10;4.90;;;;;;;24.97;57.49;99345.77;220477;1256;139813;-66
2023/06/30 06:07:42;;;;;;;8.00;5.30;;;;;;;24.53;57.74;99343.88;220254;1255;138671;-67
2023/06/30 06:12:52;;;;;;;5.60;5.20;;;;;;;24.24;58.24;99341.67;219599;1256;140008;-63
2023/06/30 06:17:59;;;;;;;6.30;5.40;;;;;;;23.89;58.58;99346.52;218114;1257;139684;-64
2023/06/30 06:23:05;;;;;;;5.40;5.00;;;;;;;23.72;59.20;99347.29;218188;1256;138820;-64
2023/06/30 06:28:13;;;;;;;5.50;5.10;;;;;;;23.46;59.38;99346.83;218651;1259;139656;-64
2023/06/30 06:33:21;;;;;;;6.00;5.40;;;;;;;23.39;59.94;99346.60;217891;1257;138971;-64
2023/06/30 06:38:31;;;;;;;5.70;5.20;;;;;;;23.49;60.03;99345.77;218029;1259;138684;-63
2023/06/30 06:43:48;;;;;;;5.70;5.20;;;;;;;23.65;60.73;99347.42;217854;1257;141380;-64
2023/06/30 06:48:58;;;;;;;5.80;4.70;;;;;;;23.76;60.54;99348.92;218149;1257;139675;-64
2023/06/30 06:54:04;;;;;;;4.60;4.10;;;;;;;23.75;60.34;99350.44;218325;1257;139473;-64
2023/06/30 06:59:08;;;;;;;5.20;4.80;;;;;;;23.53;59.45;99354.50;217704;1259;139034;-63
2023/06/30 07:04:14;;;;;;;4.70;4.20;;;;;;;23.40;59.45;99353.09;217857;1257;139681;-63
2023/06/30 07:09:19;;;;;;;4.50;4.10;;;;;;;23.34;59.86;99355.71;217946;1259;139981;-65
2023/06/30 07:14:23;;;;;;;3.90;3.30;;;;;;;23.31;59.51;99352.72;218828;1256;139237;-65
2023/06/30 07:19:29;;;;;;;3.70;3.40;;;;;;;23.40;59.12;99348.73;217913;1256;139302;-65
2023/06/30 07:24:38;;;;;;;3.70;3.40;;;;;;;23.74;58.96;99345.56;217736;1260;138903;-66
2023/06/30 07:29:49;;;;;;;4.50;3.30;;;;;;;24.11;58.04;99339.40;219025;1256;138923;-65
2023/06/30 07:34:56;;;;;;;3.20;3.00;;;;;;;24.58;57.41;99333.30;218658;1257;139991;-66
2023/06/30 07:40:01;;;;;;;6.80;3.30;;;;;;;24.85;56.48;99333.05;219775;1256;139364;-66
2023/06/30 07:45:20;;;;;;;3.50;3.20;;;;;;;24.83;55.46;99329.39;218720;1257;138529;-67
2023/06/30 07:50:25;;;;;;;6.20;3.00;;;;;;;25.13;55.96;99322.23;220542;1256;140355;-67
2023/06/30 07:55:32;;;;;;;3.90;3.10;;;;;;;25.42;54.89;99322.89;220393;1256;139608;-66
2023/06/30 08:00:38;;;;;;;3.40;3.10;;;;;;;25.61;54.27;99316.45;220521;1256;138907;-66
2023/06/30 08:05:43;;;;;;;5.90;3.20;;;;;;;25.83;53.90;99315.04;218443;1256;140246;-66
2023/06/30 08:10:49;;;;;;;4.60;3.20;;;;;;;26.04;53.15;99308.36;217911;1260;139265;-64
2023/06/30 08:15:54;;;;;;;;;;;;;;;26.07;52.91;99308.05;218740;1256;139221;-66
2023/06/30 08:20:59;;;;;;;3.10;2.70;;;;;;;26.06;53.01;99301.31;218475;1257;125340;-69
2023/06/30 08:26:06;;;;;;;4.80;3.30;;;;;;;26.24;52.96;99300.88;217831;1256;140528;-65
2023/06/30 08:31:13;;;;;;;5.30;3.20;;;;;;;26.37;52.49;99291.17;218677;1256;139634;-64
2023/06/30 08:36:18;;;;;;;6.70;2.70;;;;;;;26.35;51.94;99291.59;217755;1257;139158;-64
2023/06/30 08:41:24;;;;;;;3.20;3.00;;;;;;;26.28;51.56;99295.61;218055;1259;140093;-64
2023/06/30 08:46:29;;;;;;;2.90;2.20;;;;;;;26.21;51.76;99302.59;218220;1256;140702;-65
2023/06/30 08:51:34;;;;;;;3.10;2.50;;;;;;;26.17;51.01;99304.58;218866;1256;139539;-65
2023/06/30 08:56:40;;;;;;;2.60;2.40;;;;;;;26.59;51.43;99299.56;218459;1256;138676;-65
2023/06/30 09:01:46;;;;;;;2.40;2.20;;;;;;;27.04;50.41;99300.53;217800;1259;139837;-65
2023/06/30 09:06:52;;;;;;;2.50;2.00;;;;;;;27.41;49.93;99298.80;218313;1256;140055;-66
2023/06/30 09:11:57;;;;;;;2.40;2.20;;;;;;;27.82;49.00;99291.59;217815;1256;138588;-69
2023/06/30 09:17:06;;;;;;;3.00;2.50;;;;;;;28.23;49.53;99289.25;219218;1256;138682;-68
2023/06/30 09:22:11;;;;;;;7.30;3.00;;;;;;;28.66;48.29;99284.17;218499;1256;140865;-68
2023/06/30 09:27:37;;;;;;;2.90;2.70;;;;;;;29.06;48.03;99277.85;217619;1259;139878;-68
2023/06/30 09:32:42;;;;;;;6.90;3.10;;;;;;;29.25;46.59;99277.84;219487;1256;139427;-67
2023/06/30 09:37:47;;;;;;;3.00;2.60;;;;;;;28.95;45.73;99273.61;218242;1259;138654;-68
2023/06/30 09:42:54;;;;;;;2.80;2.60;;;;;;;28.57;45.60;99271.94;220516;1256;139377;-69
2023/06/30 09:47:57;;;;;;;3.40;2.80;;;;;;;28.75;45.55;99269.11;220435;1255;140319;-69
2023/06/30 09:53:03;;;;;;;3.90;3.00;;;;;;;29.03;45.55;99259.00;219454;1255;138763;-66
2023/06/30 09:58:11;;;;;;;;;;;;;;;29.12;45.20;99254.10;220650;1256;138601;-67
2023/06/30 10:03:19;;;;;;;2.90;2.80;;;;;;;29.18;45.20;99255.99;220030;1256;125806;-67
2023/06/30 10:08:24;;;;;;;3.00;2.60;;;;;;;29.33;44.83;99251.42;218242;1259;139176;-66
2023/06/30 10:13:31;;;;;;;4.20;3.10;;;;;;;29.06;44.08;99247.11;217845;1260;141137;-67
2023/06/30 10:18:43;;;;;;;5.20;2.70;;;;;;;28.79;44.20;99249.52;218519;1260;150470;-67
2023/06/30 10:23:49;;;;;;;3.80;2.70;;;;;;;28.74;44.47;99250.59;217819;1257;138659;-67
2023/06/30 10:28:55;;;;;;;3.50;2.90;;;;;;;28.71;43.97;99241.00;218738;1257;140478;-66
2023/06/30 10:34:00;;;;;;;4.00;2.50;;;;;;;28.91;44.26;99240.94;217731;1260;138309;-67
2023/06/30 10:39:06;;;;;;;6.30;3.20;;;;;;;28.89;43.69;99237.07;217702;1257;393575;-67
2023/06/30 10:44:12;;;;;;;4.00;3.00;;;;;;;28.69;43.38;99236.57;217765;1257;139955;-66
2023/06/30 10:49:40;;;;;;;3.00;2.60;;;;;;;28.89;44.42;99227.89;217930;1257;139686;-67
2023/06/30 10:54:49;;;;;;;3.20;2.10;;;;;;;29.49;43.72;99222.47;217855;1256;139873;-67
2023/06/30 11:00:11;;;;;;;4.10;2.90;;;;;;;29.51;43.01;99218.82;217929;1260;139700;-67
2023/06/30 11:05:30;;;;;;;2.50;2.40;;;;;;;29.32;42.92;99209.14;218038;1256;139963;-66
2023/06/30 11:10:46;;;;;;;2.70;2.50;;;;;;;29.29;42.86;99204.09;218180;1256;139661;-67
2023/06/30 11:15:55;;;;;;;4.50;3.30;;;;;;;29.25;42.81;99202.06;218346;1257;140131;-67
2023/06/30 11:21:08;;;;;;;3.00;2.30;;;;;;;29.16;42.54;99202.80;218171;1256;140361;-67
2023/06/30 11:26:13;;;;;;;2.50;2.30;;;;;;;28.74;41.87;99196.45;220322;1256;140069;-68
2023/06/30 11:31:19;;;;;;;3.70;2.50;;;;;;;28.47;42.35;99193.67;218046;1257;138945;-67
2023/06/30 11:36:31;;;;;;;3.20;2.90;;;;;;;28.27;42.62;99192.64;219095;1256;139661;-68
2023/06/30 11:41:35;;;;;;;16.80;6.50;;;;;;;28.23;43.27;99192.01;219086;1257;139732;-68
2023/06/30 11:46:40;;;;;;;12.40;5.20;;;;;;;28.26;42.83;99181.89;220557;1256;140414;-68
2023/06/30 11:51:47;;;;;;;9.30;2.80;;;;;;;28.40;43.54;99181.64;218999;1256;140206;-68
2023/06/30 11:56:52;;;;;;;3.90;2.80;;;;;;;28.76;43.16;99174.62;219640;1256;139912;-67
2023/06/30 12:01:57;;;;;;;3.80;2.90;;;;;;;29.30;42.83;99166.29;219204;1257;138767;-67
2023/06/30 12:07:05;;;;;;;3.40;2.80;;;;;;;29.52;42.28;99161.46;218614;1257;140890;-69
2023/06/30 12:12:10;;;;;;;2.90;2.70;;;;;;;29.58;42.38;99163.13;217955;1256;138930;-67
2023/06/30 12:17:18;;;;;;;2.90;2.60;;;;;;;29.47;41.87;99165.94;219164;1257;139201;-67
2023/06/30 12:22:30;;;;;;;3.00;2.60;;;;;;;29.14;41.59;99162.70;217769;1256;140138;-67
2023/06/30 12:27:35;;;;;;;3.40;2.60;;;;;;;28.88;42.23;99161.34;217943;1256;139149;-68
2023/06/30 12:32:41;;;;;;;3.10;2.80;;;;;;;28.80;42.00;99156.73;218239;1260;230089;-68
2023/06/30 12:37:48;;;;;;;3.80;2.80;;;;;;;28.61;42.17;99152.53;217753;1259;139176;-66
2023/06/30 12:42:53;;;;;;;3.50;2.20;;;;;;;28.25;42.35;99145.99;217508;1257;139785;-67
2023/06/30 12:47:57;;;;;;;15.60;3.20;;;;;;;27.99;42.68;99150.39;217457;1257;139275;-68
2023/06/30 12:53:01;;;;;;;2.40;2.30;;;;;;;27.68;43.28;99147.95;217888;1257;139242;-67
2023/06/30 12:58:11;;;;;;;10.80;4.10;;;;;;;27.60;43.62;99145.12;218028;1259;140504;-67
2023/06/30 13:03:28;;;;;;;2.60;2.40;;;;;;;27.66;44.37;99134.39;217763;1257;138754;-68
2023/06/30 13:08:32;;;;;;;3.10;2.60;;;;;;;27.72;44.28;99137.94;218654;1257;139283;-69
2023/06/30 13:13:36;;;;;;;95.40;23.60;;;;;;;27.67;43.88;99131.43;217831;1257;139996;-67
2023/06/30 13:18:43;;;;;;;3.20;2.90;;;;;;;27.71;44.17;99129.86;217559;1260;141147;-67
2023/06/30 13:23:50;;;;;;;3.00;2.60;;;;;;;27.64;44.43;99130.44;218960;1260;138828;-67
2023/06/30 13:28:56;;;;;;;2.10;2.00;;;;;;;27.51;44.21;99128.35;220378;1256;139603;-67
2023/06/30 13:34:00;;;;;;;6.50;2.80;;;;;;;27.30;43.99;99128.96;218308;1254;139992;-66
2023/06/30 13:39:04;;;;;;;3.50;2.70;;;;;;;27.07;43.95;99127.80;218191;1258;232749;-68
2023/06/30 13:44:09;;;;;;;2.80;2.60;;;;;;;26.88;44.57;99123.45;220734;1254;138994;-69
2023/06/30 13:49:15;;;;;;;4.50;2.70;;;;;;;26.73;44.87;99118.20;218842;1257;139280;-68
2023/06/30 13:54:22;;;;;;;5.00;2.80;;;;;;;26.57;45.02;99113.38;218136;1258;138629;-67
2023/06/30 13:59:28;;;;;;;3.80;3.40;;;;;;;26.40;45.07;99103.09;219294;1255;139973;-68
2023/06/30 14:04:37;;;;;;;10.20;3.90;;;;;;;26.25;45.95;99103.51;218504;1254;139798;-68
2023/06/30 14:09:42;;;;;;;6.60;3.40;;;;;;;26.11;46.37;99096.98;217998;1254;139191;-67
2023/06/30 14:14:47;;;;;;;8.40;3.60;;;;;;;25.97;47.15;99094.77;218952;1256;138677;-65
2023/06/30 14:19:54;;;;;;;;;;;;;;;25.86;48.06;99091.84;218597;1257;139017;-65
2023/06/30 14:24:58;;;;;;;3.70;3.50;;;;;;;25.76;49.35;99086.91;218210;1254;126365;-66
2023/06/30 14:30:04;;;;;;;4.00;3.60;;;;;;;25.70;49.61;99085.81;217662;1257;139357;-67
2023/06/30 14:35:11;;;;;;;4.50;3.00;;;;;;;25.64;49.50;99080.90;218255;1254;138764;-67
2023/06/30 14:40:18;;;;;;;4.20;3.30;;;;;;;25.59;49.10;99076.77;218618;1257;140208;-67
2023/06/30 14:45:23;;;;;;;2.90;2.70;;;;;;;25.52;49.67;99075.71;218245;1254;138612;-66
2023/06/30 14:50:29;;;;;;;3.50;3.30;;;;;;;25.48;49.87;99070.40;217727;1254;138945;-66
2023/06/30 14:55:35;;;;;;;8.60;3.40;;;;;;;25.47;49.58;99067.31;218656;1255;138682;-68
2023/06/30 15:00:45;;;;;;;3.90;3.60;;;;;;;25.43;49.74;99064.09;217554;1254;139581;-69
2023/06/30 15:05:51;;;;;;;;;;;;;;;25.42;49.79;99068.81;219125;1259;150743;-67
2023/06/30 15:11:02;;;;;;;5.70;3.00;;;;;;;25.36;50.16;99069.00;218750;1258;126615;-67
2023/06/30 15:16:11;;;;;;;4.60;3.90;;;;;;;25.33;50.58;99063.00;217683;1257;139620;-71
2023/06/30 15:21:17;;;;;;;3.20;3.00;;;;;;;25.25;51.28;99065.41;219700;1257;138976;-69
2023/06/30 15:26:24;;;;;;;3.80;3.40;;;;;;;25.16;50.83;99061.73;220407;1256;139825;-67
2023/06/30 15:31:32;;;;;;;5.10;3.50;;;;;;;25.11;50.71;99054.89;219487;1257;139292;-68
2023/06/30 15:36:37;;;;;;;5.50;3.50;;;;;;;25.08;51.27;99050.59;220603;1256;140041;-66
2023/06/30 15:41:44;;;;;;;4.20;3.90;;;;;;;25.06;51.56;99041.42;220703;1257;138867;-70
2023/06/30 15:46:52;;;;;;;5.70;4.20;;;;;;;25.08;52.06;99040.55;220610;1254;223412;-68
2023/06/30 15:51:58;;;;;;;7.50;4.10;;;;;;;25.06;53.30;99041.13;219534;1257;139083;-67
2023/06/30 15:57:04;;;;;;;4.90;4.50;;;;;;;24.96;53.94;99032.35;219533;1254;138952;-68
2023/06/30 16:02:10;;;;;;;6.50;4.10;;;;;;;24.84;55.11;99032.42;218327;1258;140391;-67
2023/06/30 16:07:16;;;;;;;4.60;4.20;;;;;;;24.70;56.09;99029.24;219062;1259;138667;-70
2023/06/30 16:12:22;;;;;;;5.80;4.50;;;;;;;24.55;56.49;99022.56;218430;1254;138942;-67
2023/06/30 16:17:30;;;;;;;5.10;4.50;;;;;;;24.41;56.86;99026.91;217930;1259;138947;-66
2023/06/30 16:22:40;;;;;;;4.20;3.80;;;;;;;24.27;57.39;99024.11;218462;1254;139857;-70
2023/06/30 16:27:59;;;;;;;6.20;4.40;;;;;;;24.12;57.64;99028.95;217918;1254;139430;-66
2023/06/30 16:33:07;;;;;;;6.00;4.70;;;;;;;23.99;58.48;99028.36;218609;1254;139499;-66
2023/06/30 16:38:15;;;;;;;8.00;4.50;;;;;;;23.89;58.61;99026.09;217837;1254;140032;-68
2023/06/30 16:43:24;;;;;;;4.70;4.20;;;;;;;23.83;59.22;99034.48;217771;1257;138821;-63
2023/06/30 16:48:35;;;;;;;6.20;5.00;;;;;;;23.81;59.61;99033.33;217894;1259;139419;-66
2023/06/30 16:53:45;;;;;;;5.30;4.80;;;;;;;23.82;59.79;99028.86;218074;1257;141174;-67
2023/06/30 16:58:58;;;;;;;14.70;5.90;;;;;;;23.77;59.89;99028.77;217929;1259;140222;-68
2023/06/30 17:04:09;;;;;;;5.60;5.20;;;;;;;23.71;60.43;99030.44;218897;1259;140340;-67
2023/06/30 17:09:20;;;;;;;7.70;4.80;;;;;;;23.65;60.89;99034.19;218811;1257;139618;-66
2023/06/30 17:14:28;;;;;;;10.00;5.80;;;;;;;23.54;60.92;99039.42;217728;1259;139380;-66
2023/06/30 17:19:35;;;;;;;7.30;5.90;;;;;;;23.44;61.00;99044.20;219726;1256;143561;-66
2023/06/30 17:24:44;;;;;;;7.80;5.90;;;;;;;23.35;61.13;99047.36;218217;1259;140567;-66
2023/06/30 17:29:53;;;;;;;5.80;5.30;;;;;;;23.32;61.67;99046.77;218256;1259;139864;-65
2023/06/30 17:35:05;;;;;;;6.00;5.50;;;;;;;23.30;62.50;99042.21;220608;1254;247100;-64
2023/06/30 17:40:14;;;;;;;5.70;5.00;;;;;;;23.29;63.13;99040.91;219137;1258;141459;-64
2023/06/30 17:45:20;;;;;;;5.70;5.10;;;;;;;23.24;63.22;99044.24;220565;1259;221915;-65
2023/06/30 17:50:28;;;;;;;5.80;5.30;;;;;;;23.18;63.55;99041.88;220447;1254;139863;-67
2023/06/30 17:55:33;;;;;;;6.20;5.60;;;;;;;23.13;63.88;99054.93;220655;1257;140439;-72
2023/06/30 18:00:38;;;;;;;5.50;5.00;;;;;;;23.02;63.71;99062.19;219399;1259;139623;-66
2023/06/30 18:05:44;;;;;;;5.00;4.70;;;;;;;22.83;62.86;99065.71;218894;1259;139415;-65
2023/06/30 18:10:49;;;;;;;5.40;5.00;;;;;;;22.63;62.63;99070.24;218733;1257;139282;-66
2023/06/30 18:16:13;;;;;;;7.40;5.40;;;;;;;22.50;62.29;99070.15;219009;1256;140190;-67
2023/06/30 18:21:32;;;;;;;6.70;4.80;;;;;;;22.32;62.16;99076.19;218235;1257;139575;-65
2023/06/30 18:26:48;;;;;;;6.80;4.90;;;;;;;22.14;62.13;99073.09;217888;1259;141095;-65
2023/06/30 18:31:55;;;;;;;5.50;5.00;;;;;;;21.99;62.25;99070.05;218218;1258;139970;-64
2023/06/30 18:37:07;;;;;;;5.80;5.30;;;;;;;21.84;62.30;99073.48;217976;1254;139723;-76
2023/06/30 18:42:13;;;;;;;8.80;5.70;;;;;;;21.73;62.38;99081.39;218313;1258;141063;-67
2023/06/30 18:47:18;;;;;;;6.20;4.10;;;;;;;21.61;62.58;99082.14;217835;1259;139209;-73
2023/06/30 18:52:23;;;;;;;7.70;4.90;;;;;;;21.54;62.71;99084.84;217801;1260;140125;-65
2023/06/30 18:57:29;;;;;;;5.20;4.80;;;;;;;21.49;62.90;99087.86;218044;1260;140601;-66
2023/06/30 19:02:37;;;;;;;6.00;5.20;;;;;;;21.39;62.96;99094.83;217873;1259;139857;-67
2023/06/30 19:07:43;;;;;;;7.60;5.50;;;;;;;21.32;63.17;99101.73;218592;1258;140674;-70
2023/06/30 19:12:48;;;;;;;5.80;4.60;;;;;;;21.23;63.25;99107.04;218023;1258;139993;-67
2023/06/30 19:17:53;;;;;;;5.00;4.40;;;;;;;21.11;63.31;99111.23;219757;1258;140068;-70
2023/06/30 19:23:00;;;;;;;5.80;5.10;;;;;;;21.01;63.29;99112.70;218964;1255;140191;-67
2023/06/30 19:28:08;;;;;;;4.90;4.50;;;;;;;20.94;63.34;99114.64;218201;1260;139523;-67
2023/06/30 19:33:23;;;;;;;4.40;4.00;;;;;;;20.85;63.55;99122.82;220772;1254;139852;-67
2023/06/30 19:38:28;;;;;;;5.20;4.80;;;;;;;20.73;63.97;99128.77;220647;1259;140712;-67
2023/06/30 19:43:40;;;;;;;29.90;7.30;;;;;;;20.65;64.40;99131.23;220750;1254;140329;-67
2023/06/30 19:48:46;;;;;;;6.10;5.30;;;;;;;20.54;64.85;99136.21;220645;1254;140594;-70
2023/06/30 19:53:53;;;;;;;7.20;5.20;;;;;;;20.36;65.34;99140.16;220357;1255;145970;-67
2023/06/30 19:59:05;;;;;;;5.80;5.30;;;;;;;20.18;65.88;99136.86;218247;1259;140400;-67
2023/06/30 20:04:12;;;;;;;9.80;6.30;;;;;;;20.02;66.63;99136.23;217934;1260;138776;-66
2023/06/30 20:09:17;;;;;;;9.60;6.70;;;;;;;19.88;67.19;99134.68;217896;1259;139633;-66
2023/06/30 20:14:23;;;;;;;8.80;7.10;;;;;;;19.71;67.82;99133.66;218686;1260;141014;-66
2023/06/30 20:19:33;;;;;;;9.00;6.50;;;;;;;19.56;68.50;99134.91;217838;1254;139725;-67
2023/06/30 20:24:44;;;;;;;6.70;6.00;;;;;;;19.42;69.11;99135.98;219488;1260;140628;-65
2023/06/30 20:29:53;;;;;;;7.30;6.60;;;;;;;19.30;69.64;99137.67;217899;1260;141086;-67
2023/06/30 20:35:11;;;;;;;7.90;6.60;;;;;;;19.20;70.06;99141.82;218751;1257;244102;-64
2023/06/30 20:40:18;;;;;;;9.20;7.30;;;;;;;19.11;70.66;99140.71;218186;1259;139898;-64
2023/06/30 20:45:22;;;;;;;8.10;7.00;;;;;;;19.02;71.05;99139.39;218072;1260;139700;-65
2023/06/30 20:50:33;;;;;;;8.00;7.30;;;;;;;18.94;71.44;99136.13;218224;1254;139510;-65
2023/06/30 20:55:40;;;;;;;8.90;8.00;;;;;;;18.91;71.91;99135.30;218624;1260;140272;-72
2023/06/30 21:00:45;;;;;;;7.40;6.80;;;;;;;18.88;72.31;99134.16;218927;1256;138727;-65
2023/06/30 21:05:51;;;;;;;7.90;7.10;;;;;;;18.78;72.48;99133.08;218259;1257;140390;-67
2023/06/30 21:10:59;;;;;;;8.20;7.50;;;;;;;18.72;73.03;99135.96;218776;1257;140402;-66
2023/06/30 21:16:05;;;;;;;9.00;7.60;;;;;;;18.66;73.38;99123.55;218830;1254;141826;-66
2023/06/30 21:21:09;;;;;;;9.00;7.70;;;;;;;18.56;73.68;99116.15;219722;1256;139092;-67
2023/06/30 21:26:15;;;;;;;8.10;7.40;;;;;;;18.46;74.11;99112.88;219195;1259;139374;-65
2023/06/30 21:31:20;;;;;;;9.50;8.70;;;;;;;18.46;74.60;99113.04;218556;1257;140849;-67
2023/06/30 21:36:26;;;;;;;10.70;9.20;;;;;;;18.48;75.02;99111.59;217991;1258;140020;-67
2023/06/30 21:41:30;;;;;;;9.40;8.60;;;;;;;18.47;75.18;99111.88;220679;1254;139733;-67
2023/06/30 21:46:35;;;;;;;8.90;8.00;;;;;;;18.42;75.29;99103.08;219630;1254;139404;-67
2023/06/30 21:51:39;;;;;;;9.20;8.50;;;;;;;18.36;75.70;99097.86;218206;1257;139995;-71
2023/06/30 21:56:43;;;;;;;9.50;8.80;;;;;;;18.31;75.91;99087.09;218363;1259;140433;-68
2023/06/30 22:01:50;;;;;;;10.50;8.10;;;;;;;18.25;76.16;99089.15;218796;1260;140875;-69
2023/06/30 22:06:56;;;;;;;9.60;8.70;;;;;;;18.16;76.39;99092.23;218282;1254;139457;-69
2023/06/30 22:11:59;;;;;;;10.30;9.30;;;;;;;18.07;76.88;99091.64;218524;1257;140754;-67
2023/06/30 22:17:03;;;;;;;8.90;8.10;;;;;;;18.00;77.18;99088.23;217998;1257;140780;-67
2023/06/30 22:22:08;;;;;;;10.60;9.50;;;;;;;17.91;77.52;99084.89;217919;1254;139538;-68
2023/06/30 22:27:13;;;;;;;10.30;9.30;;;;;;;17.80;77.87;99080.81;218419;1259;140271;-67
2023/06/30 22:32:17;;;;;;;9.70;8.80;;;;;;;17.70;78.37;99072.88;217794;1254;140030;-67
2023/06/30 22:37:22;;;;;;;11.40;10.20;;;;;;;17.61;78.66;99070.86;218737;1254;140943;-69
2023/06/30 22:42:26;;;;;;;15.30;9.70;;;;;;;17.57;78.92;99070.34;217590;1256;645531;-67
2023/06/30 22:47:30;;;;;;;10.00;8.60;;;;;;;17.57;79.10;99069.63;217666;1257;140039;-67
2023/06/30 22:52:35;;;;;;;9.70;8.80;;;;;;;17.56;79.23;99065.17;218224;1259;139704;-66
2023/06/30 22:57:39;;;;;;;15.30;8.70;;;;;;;17.50;79.18;99060.70;217895;1259;141196;-67
2023/06/30 23:02:43;;;;;;;8.20;7.50;;;;;;;17.43;79.30;99062.22;218785;1254;141176;-67
2023/06/30 23:07:48;;;;;;;9.10;8.30;;;;;;;17.37;79.44;99061.26;217979;1256;140835;-67
2023/06/30 23:12:54;;;;;;;10.30;9.30;;;;;;;17.34;79.49;99058.89;217827;1258;141484;-65
2023/06/30 23:17:59;;;;;;;9.90;9.00;;;;;;;17.31;79.78;99056.63;218198;1257;139639;-66
2023/06/30 23:23:08;;;;;;;9.80;8.90;;;;;;;17.32;79.87;99055.26;217740;1259;140580;-65
2023/06/30 23:28:15;;;;;;;9.40;8.60;;;;;;;17.34;79.95;99056.45;220394;1256;140315;-66